Island Adventure — WDG9106 — position and weather

sailwx.info

Track history (hours):
 
Tides and Currents Weather Stations Pressure Air Temp Water Temp Dewpoint Dewpoint Depression Visibility Wind Speed Wind Dir Waves Ship Positions

Island Adventure

Owner: Superboat Inc, Ventura, CA. More information available from US FCC via Universal Licensing System and Coast Guard Vessel Documentation Center.

Last reported at 2018-Jul-20 11:58 UTC. Time now 2018-Jul-20 12:11 UTC.
Position N 34°15' W 119°16'.

Length 20 m; draft 2.4 m.

Type: Passenger vessel. MMSI: 366899260.

Date/timePositionNaut miles runAvg speedWind from/ knotsBaromVisibWave heightAir tempDewpointWater temp
2018-Jul-20 11:58N 34°15' W 119°16'0 0.0
2018-Jul-20 11:28N 34°15' W 119°16'0 0.0
2018-Jul-20 10:53N 34°15' W 119°16'0 0.0
2018-Jul-20 10:26N 34°15' W 119°16'0 0.0
2018-Jul-20 10:00N 34°15' W 119°16'0 0.0
2018-Jul-20 09:30N 34°15' W 119°16'0 0.0
2018-Jul-20 08:59N 34°15' W 119°16'0 0.0
2018-Jul-20 08:30N 34°15' W 119°16'0 0.0
2018-Jul-20 08:00N 34°15' W 119°16'0 0.0
2018-Jul-20 07:29N 34°15' W 119°16'0 0.0
2018-Jul-20 06:58N 34°15' W 119°16'0 0.0
2018-Jul-20 06:30N 34°15' W 119°16'0 0.0
2018-Jul-20 06:00N 34°15' W 119°16'0 0.0
2018-Jul-20 05:30N 34°15' W 119°16'0 0.0
2018-Jul-20 05:00N 34°15' W 119°16'0 0.0
2018-Jul-20 04:30N 34°15' W 119°16'0 0.0
2018-Jul-20 04:00N 34°15' W 119°16'0 0.0
2018-Jul-20 03:30N 34°15' W 119°16'0 0.0
2018-Jul-20 03:00N 34°15' W 119°16'0 0.0
2018-Jul-20 02:30N 34°15' W 119°16'0 0.0
2018-Jul-20 02:00N 34°15' W 119°16'0 0.0
2018-Jul-20 01:30N 34°15' W 119°16'0 0.0
2018-Jul-20 00:59N 34°15' W 119°16'0 0.0
2018-Jul-20 00:30N 34°15' W 119°16'3 6.7
2018-Jul-20 00:00N 34°14' W 119°20'613.0
2018-Jul-19 23:30N 34°10' W 119°26'917.8
2018-Jul-19 23:00N 34°03' W 119°33'0 0.4
2018-Jul-19 22:30N 34°03' W 119°33'0 0.1
2018-Jul-19 21:59N 34°03' W 119°33'0 0.1
2018-Jul-19 21:30N 34°03' W 119°33'0 0.0
2018-Jul-19 21:00N 34°03' W 119°33'0 0.1
2018-Jul-19 20:30N 34°03' W 119°33'0 0.1
2018-Jul-19 20:00N 34°03' W 119°33'0 0.0
2018-Jul-19 19:30N 34°03' W 119°33'0 0.1
2018-Jul-19 19:00N 34°03' W 119°33'0 0.1
2018-Jul-19 18:30N 34°03' W 119°33'19 6.6
2018-Jul-19 15:42N 34°15' W 119°16'0 0.9
2018-Jul-19 15:28N 34°14' W 119°16'0 0.5
2018-Jul-19 14:59N 34°15' W 119°16'0 0.0
2018-Jul-19 14:30N 34°15' W 119°16'0 0.0
2018-Jul-19 13:30N 34°15' W 119°16'0 0.0
2018-Jul-19 13:00N 34°15' W 119°16'0 0.0
2018-Jul-19 12:30N 34°15' W 119°16'0 0.0
2018-Jul-19 12:00N 34°15' W 119°16'0 0.0
2018-Jul-19 11:30N 34°15' W 119°16'0 0.0
2018-Jul-19 10:59N 34°15' W 119°16'0 0.0
2018-Jul-19 10:30N 34°15' W 119°16'0 0.0
2018-Jul-19 10:00N 34°15' W 119°16'0 0.0
2018-Jul-19 09:29N 34°15' W 119°16'0 0.0
2018-Jul-19 09:00N 34°15' W 119°16'0 0.0
2018-Jul-19 08:30N 34°15' W 119°16'0 0.0
2018-Jul-19 07:59N 34°15' W 119°16'0 0.0
2018-Jul-19 07:29N 34°15' W 119°16'0 0.0
2018-Jul-19 07:00N 34°15' W 119°16'0 0.0
2018-Jul-19 06:30N 34°15' W 119°16'0 0.0
2018-Jul-19 06:00N 34°15' W 119°16'0 0.0
2018-Jul-19 05:30N 34°15' W 119°16'0 0.0
2018-Jul-19 05:00N 34°15' W 119°16'0 0.0
2018-Jul-19 04:30N 34°15' W 119°16'0 0.0
2018-Jul-19 04:00N 34°15' W 119°16'0 0.0
2018-Jul-19 03:28N 34°15' W 119°16'0 0.0
2018-Jul-19 02:53N 34°15' W 119°16'0 0.0
2018-Jul-19 02:30N 34°15' W 119°16'0 0.0
2018-Jul-19 01:56N 34°15' W 119°16'0 0.0
2018-Jul-19 01:30N 34°15' W 119°16'0 0.0
2018-Jul-19 00:59N 34°15' W 119°16'3 6.5
2018-Jul-19 00:29N 34°13' W 119°19'817.0
2018-Jul-19 00:00N 34°08' W 119°27'713.4
2018-Jul-18 23:31N 34°03' W 119°33'1 1.4
2018-Jul-18 23:00N 34°03' W 119°33'0 0.1
2018-Jul-18 22:30N 34°03' W 119°33'0 0.0
2018-Jul-18 22:00N 34°03' W 119°33'0 0.0
2018-Jul-18 21:30N 34°03' W 119°33'0 0.0
2018-Jul-18 20:59N 34°03' W 119°33'0 0.0
2018-Jul-18 20:30N 34°03' W 119°33'0 0.0
2018-Jul-18 20:00N 34°03' W 119°33'0 0.0
2018-Jul-18 19:27N 34°03' W 119°33'0 0.0
2018-Jul-18 19:00N 34°03' W 119°33'0 0.0
2018-Jul-18 18:30N 34°03' W 119°33'0 0.0
2018-Jul-18 18:00N 34°03' W 119°33'2 4.1
2018-Jul-18 17:30N 34°04' W 119°32'3 6.7
2018-Jul-18 17:00N 34°06' W 119°28'917.8
2018-Jul-18 16:30N 34°12' W 119°20'4 8.7
2018-Jul-18 16:00N 34°15' W 119°16'0 0.0
2018-Jul-18 15:31N 34°15' W 119°16'0 0.0
2018-Jul-18 15:00N 34°15' W 119°16'0 0.0
2018-Jul-18 14:28N 34°15' W 119°16'0 0.0
2018-Jul-18 13:31N 34°15' W 119°16'0 0.0
2018-Jul-18 13:00N 34°15' W 119°16'0 0.0
2018-Jul-18 12:30N 34°15' W 119°16'0 0.0
2018-Jul-18 12:00N 34°15' W 119°16'0 0.0
2018-Jul-18 11:31N 34°15' W 119°16'0 0.0
2018-Jul-18 10:30N 34°15' W 119°16'0 0.0
2018-Jul-18 09:58N 34°15' W 119°16'0 0.0
2018-Jul-18 09:29N 34°15' W 119°16'0 0.0
2018-Jul-18 09:00N 34°15' W 119°16'0 0.0
2018-Jul-18 08:30N 34°15' W 119°16'0 0.0
2018-Jul-18 08:01N 34°15' W 119°16'0 0.0
2018-Jul-18 07:30N 34°15' W 119°16'0 0.0
2018-Jul-18 07:00N 34°15' W 119°16'0 0.0
2018-Jul-18 06:29N 34°15' W 119°16'0 0.0
2018-Jul-18 05:56N 34°15' W 119°16'0 0.0
2018-Jul-18 05:30N 34°15' W 119°16'0 0.0
2018-Jul-18 04:57N 34°15' W 119°16'0 0.0
2018-Jul-18 04:30N 34°15' W 119°16'0 0.0
2018-Jul-18 04:00N 34°15' W 119°16'0 0.0
2018-Jul-18 03:30N 34°15' W 119°16'0 0.0
2018-Jul-18 03:00N 34°15' W 119°16'0 0.0
2018-Jul-18 02:30N 34°15' W 119°16'0 0.0
2018-Jul-18 02:00N 34°15' W 119°16'0 0.0
2018-Jul-18 01:31N 34°15' W 119°16'0 0.0
2018-Jul-18 01:00N 34°15' W 119°16'0 0.0
2018-Jul-18 00:30N 34°15' W 119°16'0 0.0
2018-Jul-18 00:00N 34°15' W 119°16'0 0.0
2018-Jul-17 23:30N 34°15' W 119°16'0 0.0
2018-Jul-17 23:00N 34°15' W 119°16'0 0.0
2018-Jul-17 22:31N 34°15' W 119°16'0 0.0
2018-Jul-17 22:00N 34°15' W 119°16'0 0.0
2018-Jul-17 21:30N 34°15' W 119°16'0 0.0
2018-Jul-17 21:00N 34°15' W 119°16'0 0.0
2018-Jul-17 20:31N 34°15' W 119°16'0 0.0
2018-Jul-17 20:00N 34°15' W 119°16'0 0.0
2018-Jul-17 19:31N 34°15' W 119°16'0 0.0
2018-Jul-17 19:00N 34°15' W 119°16'0 0.5
2018-Jul-17 18:31N 34°14' W 119°16'0 0.0
2018-Jul-17 18:01N 34°14' W 119°16'0 0.0
2018-Jul-17 17:30N 34°14' W 119°16'0 0.0
2018-Jul-17 17:00N 34°14' W 119°16'0 0.0
2018-Jul-17 16:31N 34°14' W 119°16'0 0.0
2018-Jul-17 16:00N 34°14' W 119°16'0 0.0
2018-Jul-17 15:28N 34°14' W 119°16'0 0.5
2018-Jul-17 14:59N 34°15' W 119°16'0 0.0
2018-Jul-17 14:29N 34°15' W 119°16'0 0.0
2018-Jul-17 14:01N 34°15' W 119°16'0 0.0
2018-Jul-17 13:27N 34°15' W 119°16'0 0.0
2018-Jul-17 13:00N 34°15' W 119°16'0 0.0
2018-Jul-17 12:30N 34°15' W 119°16'0 0.0
2018-Jul-17 12:00N 34°15' W 119°16'0 0.0
2018-Jul-17 11:30N 34°15' W 119°16'0 0.0
2018-Jul-17 10:58N 34°15' W 119°16'0 0.0
2018-Jul-17 10:30N 34°15' W 119°16'0 0.0
2018-Jul-17 10:00N 34°15' W 119°16'0 0.0
2018-Jul-17 09:31N 34°15' W 119°16'0 0.0
2018-Jul-17 09:00N 34°15' W 119°16'0 0.0
2018-Jul-17 08:30N 34°15' W 119°16'0 0.0
2018-Jul-17 08:00N 34°15' W 119°16'0 0.0
2018-Jul-17 07:29N 34°15' W 119°16'0 0.0
2018-Jul-17 07:01N 34°15' W 119°16'0 0.0
2018-Jul-17 06:30N 34°15' W 119°16'0 0.0
2018-Jul-17 06:00N 34°15' W 119°16'0 0.0
2018-Jul-17 05:31N 34°15' W 119°16'0 0.0
2018-Jul-17 05:00N 34°15' W 119°16'0 0.0
2018-Jul-17 04:30N 34°15' W 119°16'0 0.0
2018-Jul-17 03:57N 34°15' W 119°16'0 0.0
2018-Jul-17 03:27N 34°15' W 119°16'0 0.0
2018-Jul-17 02:58N 34°15' W 119°16'0 0.0
2018-Jul-17 02:31N 34°15' W 119°16'0 0.0
2018-Jul-17 02:00N 34°15' W 119°16'0 0.0
2018-Jul-17 01:30N 34°15' W 119°16'4 7.8
2018-Jul-17 01:00N 34°12' W 119°20'1020.0
2018-Jul-17 00:30N 34°06' W 119°29'5 4.7
2018-Jul-16 23:30N 34°03' W 119°33'0 0.0
2018-Jul-16 23:00N 34°03' W 119°33'0 0.0
2018-Jul-16 22:30N 34°03' W 119°33'0 0.0
2018-Jul-16 22:00N 34°03' W 119°33'0 0.0
2018-Jul-16 21:30N 34°03' W 119°33'0 0.0
2018-Jul-16 21:01N 34°03' W 119°33'0 0.0
2018-Jul-16 20:31N 34°03' W 119°33'0 0.1
2018-Jul-16 20:00N 34°03' W 119°33'0 0.1
2018-Jul-16 19:30N 34°03' W 119°33'0 0.1
2018-Jul-16 19:00N 34°03' W 119°33'0 0.1
2018-Jul-16 18:30N 34°03' W 119°33'510.0
2018-Jul-16 18:00N 34°06' W 119°29'1019.2
2018-Jul-16 17:30N 34°12' W 119°20'4 7.5
2018-Jul-16 16:58N 34°15' W 119°16'0 0.0
2018-Jul-16 16:30N 34°15' W 119°16'0 0.0
2018-Jul-16 16:00N 34°15' W 119°16'0 0.0
2018-Jul-16 15:30N 34°15' W 119°16'0 0.0
2018-Jul-16 14:57N 34°15' W 119°16'0 0.0
2018-Jul-16 14:30N 34°15' W 119°16'0 0.0
2018-Jul-16 14:00N 34°15' W 119°16'0 0.0
2018-Jul-16 13:29N 34°15' W 119°16'0 0.0
2018-Jul-16 13:00N 34°15' W 119°16'0 0.0
2018-Jul-16 12:30N 34°15' W 119°16'0 0.0
2018-Jul-16 12:00N 34°15' W 119°16'0 0.0
2018-Jul-16 11:30N 34°15' W 119°16'0 0.0
2018-Jul-16 11:00N 34°15' W 119°16'0 0.0
2018-Jul-16 10:30N 34°15' W 119°16'0 0.0
2018-Jul-16 10:01N 34°15' W 119°16'0 0.0
2018-Jul-16 09:30N 34°15' W 119°16'0 0.0
2018-Jul-16 08:59N 34°15' W 119°16'0 0.0
2018-Jul-16 08:28N 34°15' W 119°16'0 0.0
2018-Jul-16 08:00N 34°15' W 119°16'0 0.0
2018-Jul-16 07:29N 34°15' W 119°16'0 0.0
2018-Jul-16 06:59N 34°15' W 119°16'0 0.0
2018-Jul-16 06:30N 34°15' W 119°16'0 0.0
2018-Jul-16 06:00N 34°15' W 119°16'0 0.0
2018-Jul-16 05:30N 34°15' W 119°16'0 0.0
2018-Jul-16 05:00N 34°15' W 119°16'0 0.0
2018-Jul-16 04:30N 34°15' W 119°16'0 0.0
2018-Jul-16 04:00N 34°15' W 119°16'0 0.0
2018-Jul-16 03:30N 34°15' W 119°16'0 0.0
2018-Jul-16 03:00N 34°15' W 119°16'0 0.0
2018-Jul-16 02:30N 34°15' W 119°16'2 4.3
2018-Jul-16 02:00N 34°13' W 119°17'919.0
2018-Jul-16 01:30N 34°03' W 119°15'1019.7
2018-Jul-16 01:00N 33°54' W 119°13'917.2
2018-Jul-16 00:30N 33°46' W 119°10'1017.9
2018-Jul-15 23:58N 33°36' W 119°06'918.3
2018-Jul-15 23:30N 33°28' W 119°03'5 9.4
2018-Jul-15 22:58N 33°25' W 119°08'1315.6
2018-Jul-15 22:10N 33°16' W 119°18'2 7.5
2018-Jul-15 21:57N 33°16' W 119°20'816.0
2018-Jul-15 21:27N 33°21' W 119°28'714.1
2018-Jul-15 20:56N 33°26' W 119°33'7 9.3
2018-Jul-15 20:12N 33°32' W 119°38'2 8.3
2018-Jul-15 20:00N 33°34' W 119°38'3 6.0
2018-Jul-15 19:30N 33°37' W 119°40'4 7.2
2018-Jul-15 19:00N 33°40' W 119°42'3 5.2
2018-Jul-15 18:30N 33°42' W 119°43'4 7.3
2018-Jul-15 17:57N 33°46' W 119°44'612.9
2018-Jul-15 17:29N 33°52' W 119°42'510.7
2018-Jul-15 17:00N 33°54' W 119°36'712.5
2018-Jul-15 16:27N 33°55' W 119°28'714.4
2018-Jul-15 16:00N 34°00' W 119°23'2 3.1
2018-Jul-15 15:30N 34°01' W 119°21'4 6.6
2018-Jul-15 14:58N 34°05' W 119°21'714.0
2018-Jul-15 14:30N 34°11' W 119°19'5 9.1
2018-Jul-15 14:01N 34°15' W 119°16'0 0.0
2018-Jul-15 13:30N 34°15' W 119°16'0 0.0
2018-Jul-15 12:58N 34°15' W 119°16'0 0.0
2018-Jul-15 12:29N 34°15' W 119°16'0 0.0
2018-Jul-15 11:56N 34°15' W 119°16'0 0.0
2018-Jul-15 11:30N 34°15' W 119°16'0 0.0
2018-Jul-15 11:00N 34°15' W 119°16'0 0.0
2018-Jul-15 10:30N 34°15' W 119°16'0 0.0
2018-Jul-15 09:58N 34°15' W 119°16'0 0.0
2018-Jul-15 09:30N 34°15' W 119°16'0 0.0
2018-Jul-15 09:00N 34°15' W 119°16'0 0.0
2018-Jul-15 08:30N 34°15' W 119°16'0 0.0
2018-Jul-15 07:59N 34°15' W 119°16'0 0.0
2018-Jul-15 07:31N 34°15' W 119°16'0 0.0
2018-Jul-15 07:00N 34°15' W 119°16'0 0.0
2018-Jul-15 06:30N 34°15' W 119°16'0 0.0
2018-Jul-15 06:01N 34°15' W 119°16'0 0.0
2018-Jul-15 05:30N 34°15' W 119°16'0 0.0
2018-Jul-15 05:00N 34°15' W 119°16'0 0.0
2018-Jul-15 04:29N 34°15' W 119°16'0 0.0
2018-Jul-15 04:00N 34°15' W 119°16'0 0.0
2018-Jul-15 03:28N 34°15' W 119°16'0 0.0
2018-Jul-15 03:00N 34°15' W 119°16'0 0.0
2018-Jul-15 02:29N 34°15' W 119°16'0 0.0
2018-Jul-15 02:01N 34°15' W 119°16'0 0.0
2018-Jul-15 01:30N 34°15' W 119°16'0 0.4
2018-Jul-15 01:00N 34°14' W 119°16'1 1.0
2018-Jul-15 00:30N 34°15' W 119°16'1018.0
2018-Jul-14 23:56N 34°08' W 119°26'818.7
2018-Jul-14 23:29N 34°03' W 119°33'0 0.1
2018-Jul-14 23:00N 34°03' W 119°33'0 0.0
2018-Jul-14 22:29N 34°03' W 119°33'0 0.1
2018-Jul-14 22:00N 34°03' W 119°33'1 1.0
2018-Jul-14 21:30N 34°03' W 119°33'0 0.3
2018-Jul-14 21:00N 34°03' W 119°33'0 0.0
2018-Jul-14 20:29N 34°03' W 119°33'0 0.0
2018-Jul-14 20:00N 34°03' W 119°33'0 0.0
2018-Jul-14 19:30N 34°03' W 119°33'0 0.0
2018-Jul-14 19:00N 34°03' W 119°33'0 0.0
2018-Jul-14 18:30N 34°03' W 119°33'0 0.0
2018-Jul-14 18:00N 34°03' W 119°33'1 1.4
2018-Jul-14 17:30N 34°03' W 119°33'4 8.9
2018-Jul-14 17:00N 34°06' W 119°29'1019.3
2018-Jul-14 16:29N 34°12' W 119°20'4 8.6
2018-Jul-14 15:59N 34°15' W 119°16'0 0.0
2018-Jul-14 15:30N 34°15' W 119°16'0 0.0
2018-Jul-14 15:00N 34°15' W 119°16'0 0.0
2018-Jul-14 14:30N 34°15' W 119°16'0 0.0
2018-Jul-14 13:29N 34°15' W 119°16'0 0.0
2018-Jul-14 13:00N 34°15' W 119°16'0 0.0
2018-Jul-14 12:30N 34°15' W 119°16'0 0.0
2018-Jul-14 12:00N 34°15' W 119°16'0 0.0
2018-Jul-14 11:30N 34°15' W 119°16'0 0.0
2018-Jul-14 11:00N 34°15' W 119°16'0 0.0
2018-Jul-14 10:30N 34°15' W 119°16'0 0.0
2018-Jul-14 10:00N 34°15' W 119°16'0 0.0
2018-Jul-14 09:29N 34°15' W 119°16'0 0.0
2018-Jul-14 09:00N 34°15' W 119°16'0 0.0
2018-Jul-14 08:30N 34°15' W 119°16'0 0.0
2018-Jul-14 08:00N 34°15' W 119°16'0 0.0
2018-Jul-14 07:30N 34°15' W 119°16'0 0.0
2018-Jul-14 07:00N 34°15' W 119°16'0 0.0
2018-Jul-14 06:30N 34°15' W 119°16'0 0.0
2018-Jul-14 06:00N 34°15' W 119°16'0 0.0
2018-Jul-14 05:29N 34°15' W 119°16'0 0.0
2018-Jul-14 05:00N 34°15' W 119°16'0 0.0
2018-Jul-14 04:30N 34°15' W 119°16'0 0.0
2018-Jul-14 04:00N 34°15' W 119°16'0 0.0
2018-Jul-14 03:30N 34°15' W 119°16'0 0.0
2018-Jul-14 03:00N 34°15' W 119°16'0 0.0
2018-Jul-14 02:30N 34°15' W 119°16'0 0.0
2018-Jul-14 02:00N 34°15' W 119°16'0 0.0
2018-Jul-14 01:30N 34°15' W 119°16'0 0.0
2018-Jul-14 01:00N 34°15' W 119°16'2 3.7
2018-Jul-14 00:30N 34°14' W 119°18'918.5
2018-Jul-14 00:00N 34°08' W 119°26'715.0
2018-Jul-13 23:30N 34°03' W 119°33'0 0.0
2018-Jul-13 23:00N 34°03' W 119°33'0 0.4
2018-Jul-13 22:30N 34°03' W 119°33'11 0.5
2018-Jul-13 00:00N 34°11' W 119°23'713.8
2018-Jul-12 23:30N 34°07' W 119°31'4 8.6
2018-Jul-12 23:00N 34°04' W 119°34'2 3.3
2018-Jul-12 22:30N 34°03' W 119°33'0 0.0
2018-Jul-12 22:00N 34°03' W 119°33'0 0.0
2018-Jul-12 21:30N 34°03' W 119°33'0 0.0
2018-Jul-12 21:00N 34°03' W 119°33'0 0.0
2018-Jul-12 20:30N 34°03' W 119°33'0 0.0
2018-Jul-12 20:00N 34°03' W 119°33'0 0.0
2018-Jul-12 19:29N 34°03' W 119°33'0 0.0
2018-Jul-12 19:00N 34°03' W 119°33'0 0.0
2018-Jul-12 18:24N 34°03' W 119°33'0 0.1
2018-Jul-12 17:59N 34°03' W 119°33'713.6
2018-Jul-12 17:30N 34°08' W 119°28'918.2
2018-Jul-12 17:00N 34°13' W 119°19'3 5.9
2018-Jul-12 16:30N 34°15' W 119°16'0 0.0
2018-Jul-12 16:00N 34°15' W 119°16'0 0.0
2018-Jul-12 15:30N 34°15' W 119°16'0 0.0
2018-Jul-12 15:00N 34°15' W 119°16'0 0.0
2018-Jul-12 14:30N 34°15' W 119°16'0 0.0
2018-Jul-12 13:56N 34°15' W 119°16'0 0.0
2018-Jul-12 13:30N 34°15' W 119°16'0 0.0
2018-Jul-12 13:00N 34°15' W 119°16'0 0.0
2018-Jul-12 12:26N 34°15' W 119°16'0 0.0
2018-Jul-12 12:00N 34°15' W 119°16'0 0.0
2018-Jul-12 11:29N 34°15' W 119°16'0 0.0
2018-Jul-12 11:00N 34°15' W 119°16'0 0.0
2018-Jul-12 10:30N 34°15' W 119°16'0 0.0
2018-Jul-12 10:00N 34°15' W 119°16'0 0.0
2018-Jul-12 09:30N 34°15' W 119°16'0 0.0
2018-Jul-12 09:00N 34°15' W 119°16'0 0.0
2018-Jul-12 08:30N 34°15' W 119°16'0 0.0
2018-Jul-12 08:00N 34°15' W 119°16'0 0.0
2018-Jul-12 07:30N 34°15' W 119°16'0 0.0
2018-Jul-12 07:00N 34°15' W 119°16'0 0.0
2018-Jul-12 06:30N 34°15' W 119°16'0 0.0
2018-Jul-12 05:59N 34°15' W 119°16'0 0.0
2018-Jul-12 05:30N 34°15' W 119°16'0 0.0
2018-Jul-12 05:00N 34°15' W 119°16'0 0.0
2018-Jul-12 04:30N 34°15' W 119°16'0 0.0
2018-Jul-12 04:00N 34°15' W 119°16'0 0.0
2018-Jul-12 03:30N 34°15' W 119°16'0 0.0
2018-Jul-12 02:59N 34°15' W 119°16'0 0.0
2018-Jul-12 02:30N 34°15' W 119°16'0 0.0
2018-Jul-12 02:00N 34°15' W 119°16'0 0.0
2018-Jul-12 01:30N 34°15' W 119°16'0 0.0
2018-Jul-12 00:58N 34°15' W 119°16'0 0.0
2018-Jul-12 00:30N 34°15' W 119°16'0 0.6
2018-Jul-12 00:00N 34°15' W 119°16'1019.8
2018-Jul-11 23:31N 34°09' W 119°26'612.9
2018-Jul-11 23:00N 34°05' W 119°32'3 5.3
2018-Jul-11 22:30N 34°03' W 119°33'0 0.1
2018-Jul-11 22:00N 34°03' W 119°33'1 1.1
2018-Jul-11 21:30N 34°03' W 119°33'0 0.1
2018-Jul-11 21:00N 34°03' W 119°33'0 0.1
2018-Jul-11 20:30N 34°03' W 119°33'0 0.1
2018-Jul-11 20:00N 34°03' W 119°33'0 0.0
2018-Jul-11 19:30N 34°03' W 119°33'0 0.0
2018-Jul-11 19:00N 34°03' W 119°33'1 1.1
2018-Jul-11 18:30N 34°03' W 119°33'0 0.0
2018-Jul-11 18:00N 34°03' W 119°33'0 0.6
2018-Jul-11 17:30N 34°03' W 119°33'714.0
2018-Jul-11 17:00N 34°08' W 119°27'918.0
2018-Jul-11 16:30N 34°14' W 119°18'2 4.8
2018-Jul-11 16:01N 34°15' W 119°16'0 0.0
2018-Jul-11 15:31N 34°15' W 119°16'0 0.0
2018-Jul-11 15:00N 34°15' W 119°16'0 0.0
2018-Jul-11 14:31N 34°15' W 119°16'0 0.0
2018-Jul-11 14:00N 34°15' W 119°16'0 0.0
2018-Jul-11 13:30N 34°15' W 119°16'0 0.0
2018-Jul-11 13:00N 34°15' W 119°16'0 0.0
2018-Jul-11 12:28N 34°15' W 119°16'0 0.0
2018-Jul-11 12:00N 34°15' W 119°16'0 0.0
2018-Jul-11 11:30N 34°15' W 119°16'0 0.0
2018-Jul-11 11:00N 34°15' W 119°16'0 0.0
2018-Jul-11 10:29N 34°15' W 119°16'0 0.0
2018-Jul-11 10:01N 34°15' W 119°16'0 0.0
2018-Jul-11 09:28N 34°15' W 119°16'0 0.0
2018-Jul-11 09:00N 34°15' W 119°16'0 0.0
2018-Jul-11 08:29N 34°15' W 119°16'0 0.0
2018-Jul-11 08:00N 34°15' W 119°16'0 0.0
2018-Jul-11 07:31N 34°15' W 119°16'0 0.0
2018-Jul-11 07:00N 34°15' W 119°16'0 0.0
2018-Jul-11 06:30N 34°15' W 119°16'0 0.0
2018-Jul-11 06:01N 34°15' W 119°16'0 0.0
2018-Jul-11 05:30N 34°15' W 119°16'0 0.0
2018-Jul-11 05:00N 34°15' W 119°16'0 0.0
2018-Jul-11 04:31N 34°15' W 119°16'0 0.0
2018-Jul-11 04:00N 34°15' W 119°16'0 0.0
2018-Jul-11 03:31N 34°15' W 119°16'0 0.0
2018-Jul-11 02:57N 34°15' W 119°16'0 0.0
2018-Jul-11 02:29N 34°15' W 119°16'0 0.0
2018-Jul-11 02:01N 34°15' W 119°16'0 0.0
2018-Jul-11 01:31N 34°15' W 119°16'0 0.0
2018-Jul-11 01:01N 34°15' W 119°16'0 0.0
2018-Jul-11 00:31N 34°15' W 119°16'713.2
2018-Jul-11 00:00N 34°09' W 119°20'815.8
2018-Jul-10 23:30N 34°01' W 119°21'816.5
2018-Jul-10 23:00N 34°05' W 119°30'2 4.2
2018-Jul-10 22:30N 34°06' W 119°32'611.0
2018-Jul-10 21:59N 34°10' W 119°27'511.3
2018-Jul-10 21:30N 34°12' W 119°21'5 9.9
2018-Jul-10 21:00N 34°15' W 119°16'0 0.2
2018-Jul-10 20:30N 34°15' W 119°16'916.5
2018-Jul-10 19:59N 34°08' W 119°22'712.7
2018-Jul-10 19:27N 34°01' W 119°22'716.1
2018-Jul-10 19:00N 34°03' W 119°30'2 4.5
2018-Jul-10 18:30N 34°06' W 119°30'2 3.4
2018-Jul-10 18:00N 34°07' W 119°30'816.3
2018-Jul-10 17:31N 34°12' W 119°22'611.3
2018-Jul-10 17:00N 34°15' W 119°16'0 0.0
2018-Jul-10 16:30N 34°15' W 119°16'0 0.0
2018-Jul-10 16:00N 34°15' W 119°16'0 0.0
2018-Jul-10 15:28N 34°15' W 119°16'0 0.0
2018-Jul-10 15:00N 34°15' W 119°16'0 0.0
2018-Jul-10 14:31N 34°15' W 119°16'0 0.0
2018-Jul-10 14:00N 34°15' W 119°16'0 0.0
2018-Jul-10 13:31N 34°15' W 119°16'0 0.0
2018-Jul-10 13:00N 34°15' W 119°16'0 0.0
2018-Jul-10 12:30N 34°15' W 119°16'0 0.0
2018-Jul-10 12:00N 34°15' W 119°16'  
Track history (hours):
 
Tides and Currents Weather Stations Pressure Air Temp Water Temp Dewpoint Dewpoint Depression Visibility Wind Speed Wind Dir Waves Ship Positions

Island Adventure

Owner: Superboat Inc, Ventura, CA. More information available from US FCC via Universal Licensing System and Coast Guard Vessel Documentation Center.

Last reported at 2018-Jul-20 11:58 UTC. Time now 2018-Jul-20 12:11 UTC.
Position N 34°15' W 119°16'.

Length 20 m; draft 2.4 m.

Type: Passenger vessel. MMSI: 366899260.

Date/timePositionNaut miles runAvg speedWind from/ knotsBaromVisibWave heightAir tempDewpointWater temp
2018-Jul-20 11:58N 34°15' W 119°16'0 0.0
2018-Jul-20 11:28N 34°15' W 119°16'0 0.0
2018-Jul-20 10:53N 34°15' W 119°16'0 0.0
2018-Jul-20 10:26N 34°15' W 119°16'0 0.0
2018-Jul-20 10:00N 34°15' W 119°16'0 0.0
2018-Jul-20 09:30N 34°15' W 119°16'0 0.0
2018-Jul-20 08:59N 34°15' W 119°16'0 0.0
2018-Jul-20 08:30N 34°15' W 119°16'0 0.0
2018-Jul-20 08:00N 34°15' W 119°16'0 0.0
2018-Jul-20 07:29N 34°15' W 119°16'0 0.0
2018-Jul-20 06:58N 34°15' W 119°16'0 0.0
2018-Jul-20 06:30N 34°15' W 119°16'0 0.0
2018-Jul-20 06:00N 34°15' W 119°16'0 0.0
2018-Jul-20 05:30N 34°15' W 119°16'0 0.0
2018-Jul-20 05:00N 34°15' W 119°16'0 0.0
2018-Jul-20 04:30N 34°15' W 119°16'0 0.0
2018-Jul-20 04:00N 34°15' W 119°16'0 0.0
2018-Jul-20 03:30N 34°15' W 119°16'0 0.0
2018-Jul-20 03:00N 34°15' W 119°16'0 0.0
2018-Jul-20 02:30N 34°15' W 119°16'0 0.0
2018-Jul-20 02:00N 34°15' W 119°16'0 0.0
2018-Jul-20 01:30N 34°15' W 119°16'0 0.0
2018-Jul-20 00:59N 34°15' W 119°16'0 0.0
2018-Jul-20 00:30N 34°15' W 119°16'3 6.7
2018-Jul-20 00:00N 34°14' W 119°20'613.0
2018-Jul-19 23:30N 34°10' W 119°26'917.8
2018-Jul-19 23:00N 34°03' W 119°33'0 0.4
2018-Jul-19 22:30N 34°03' W 119°33'0 0.1
2018-Jul-19 21:59N 34°03' W 119°33'0 0.1
2018-Jul-19 21:30N 34°03' W 119°33'0 0.0
2018-Jul-19 21:00N 34°03' W 119°33'0 0.1
2018-Jul-19 20:30N 34°03' W 119°33'0 0.1
2018-Jul-19 20:00N 34°03' W 119°33'0 0.0
2018-Jul-19 19:30N 34°03' W 119°33'0 0.1
2018-Jul-19 19:00N 34°03' W 119°33'0 0.1
2018-Jul-19 18:30N 34°03' W 119°33'19 6.6
2018-Jul-19 15:42N 34°15' W 119°16'0 0.9
2018-Jul-19 15:28N 34°14' W 119°16'0 0.5
2018-Jul-19 14:59N 34°15' W 119°16'0 0.0
2018-Jul-19 14:30N 34°15' W 119°16'0 0.0
2018-Jul-19 13:30N 34°15' W 119°16'0 0.0
2018-Jul-19 13:00N 34°15' W 119°16'0 0.0
2018-Jul-19 12:30N 34°15' W 119°16'0 0.0
2018-Jul-19 12:00N 34°15' W 119°16'0 0.0
2018-Jul-19 11:30N 34°15' W 119°16'0 0.0
2018-Jul-19 10:59N 34°15' W 119°16'0 0.0
2018-Jul-19 10:30N 34°15' W 119°16'0 0.0
2018-Jul-19 10:00N 34°15' W 119°16'0 0.0
2018-Jul-19 09:29N 34°15' W 119°16'0 0.0
2018-Jul-19 09:00N 34°15' W 119°16'0 0.0
2018-Jul-19 08:30N 34°15' W 119°16'0 0.0
2018-Jul-19 07:59N 34°15' W 119°16'0 0.0
2018-Jul-19 07:29N 34°15' W 119°16'0 0.0
2018-Jul-19 07:00N 34°15' W 119°16'0 0.0
2018-Jul-19 06:30N 34°15' W 119°16'0 0.0
2018-Jul-19 06:00N 34°15' W 119°16'0 0.0
2018-Jul-19 05:30N 34°15' W 119°16'0 0.0
2018-Jul-19 05:00N 34°15' W 119°16'0 0.0
2018-Jul-19 04:30N 34°15' W 119°16'0 0.0
2018-Jul-19 04:00N 34°15' W 119°16'0 0.0
2018-Jul-19 03:28N 34°15' W 119°16'0 0.0
2018-Jul-19 02:53N 34°15' W 119°16'0 0.0
2018-Jul-19 02:30N 34°15' W 119°16'0 0.0
2018-Jul-19 01:56N 34°15' W 119°16'0 0.0
2018-Jul-19 01:30N 34°15' W 119°16'0 0.0
2018-Jul-19 00:59N 34°15' W 119°16'3 6.5
2018-Jul-19 00:29N 34°13' W 119°19'817.0
2018-Jul-19 00:00N 34°08' W 119°27'713.4
2018-Jul-18 23:31N 34°03' W 119°33'1 1.4
2018-Jul-18 23:00N 34°03' W 119°33'0 0.1
2018-Jul-18 22:30N 34°03' W 119°33'0 0.0
2018-Jul-18 22:00N 34°03' W 119°33'0 0.0
2018-Jul-18 21:30N 34°03' W 119°33'0 0.0
2018-Jul-18 20:59N 34°03' W 119°33'0 0.0
2018-Jul-18 20:30N 34°03' W 119°33'0 0.0
2018-Jul-18 20:00N 34°03' W 119°33'0 0.0
2018-Jul-18 19:27N 34°03' W 119°33'0 0.0
2018-Jul-18 19:00N 34°03' W 119°33'0 0.0
2018-Jul-18 18:30N 34°03' W 119°33'0 0.0
2018-Jul-18 18:00N 34°03' W 119°33'2 4.1
2018-Jul-18 17:30N 34°04' W 119°32'3 6.7
2018-Jul-18 17:00N 34°06' W 119°28'917.8
2018-Jul-18 16:30N 34°12' W 119°20'4 8.7
2018-Jul-18 16:00N 34°15' W 119°16'0 0.0
2018-Jul-18 15:31N 34°15' W 119°16'0 0.0
2018-Jul-18 15:00N 34°15' W 119°16'0 0.0
2018-Jul-18 14:28N 34°15' W 119°16'0 0.0
2018-Jul-18 13:31N 34°15' W 119°16'0 0.0
2018-Jul-18 13:00N 34°15' W 119°16'0 0.0
2018-Jul-18 12:30N 34°15' W 119°16'0 0.0
2018-Jul-18 12:00N 34°15' W 119°16'0 0.0
2018-Jul-18 11:31N 34°15' W 119°16'0 0.0
2018-Jul-18 10:30N 34°15' W 119°16'0 0.0
2018-Jul-18 09:58N 34°15' W 119°16'0 0.0
2018-Jul-18 09:29N 34°15' W 119°16'0 0.0
2018-Jul-18 09:00N 34°15' W 119°16'0 0.0
2018-Jul-18 08:30N 34°15' W 119°16'0 0.0
2018-Jul-18 08:01N 34°15' W 119°16'0 0.0
2018-Jul-18 07:30N 34°15' W 119°16'0 0.0
2018-Jul-18 07:00N 34°15' W 119°16'0 0.0
2018-Jul-18 06:29N 34°15' W 119°16'0 0.0
2018-Jul-18 05:56N 34°15' W 119°16'0 0.0
2018-Jul-18 05:30N 34°15' W 119°16'0 0.0
2018-Jul-18 04:57N 34°15' W 119°16'0 0.0
2018-Jul-18 04:30N 34°15' W 119°16'0 0.0
2018-Jul-18 04:00N 34°15' W 119°16'0 0.0
2018-Jul-18 03:30N 34°15' W 119°16'0 0.0
2018-Jul-18 03:00N 34°15' W 119°16'0 0.0
2018-Jul-18 02:30N 34°15' W 119°16'0 0.0
2018-Jul-18 02:00N 34°15' W 119°16'0 0.0
2018-Jul-18 01:31N 34°15' W 119°16'0 0.0
2018-Jul-18 01:00N 34°15' W 119°16'0 0.0
2018-Jul-18 00:30N 34°15' W 119°16'0 0.0
2018-Jul-18 00:00N 34°15' W 119°16'0 0.0
2018-Jul-17 23:30N 34°15' W 119°16'0 0.0
2018-Jul-17 23:00N 34°15' W 119°16'0 0.0
2018-Jul-17 22:31N 34°15' W 119°16'0 0.0
2018-Jul-17 22:00N 34°15' W 119°16'0 0.0
2018-Jul-17 21:30N 34°15' W 119°16'0 0.0
2018-Jul-17 21:00N 34°15' W 119°16'0 0.0
2018-Jul-17 20:31N 34°15' W 119°16'0 0.0
2018-Jul-17 20:00N 34°15' W 119°16'0 0.0
2018-Jul-17 19:31N 34°15' W 119°16'0 0.0
2018-Jul-17 19:00N 34°15' W 119°16'0 0.5
2018-Jul-17 18:31N 34°14' W 119°16'0 0.0
2018-Jul-17 18:01N 34°14' W 119°16'0 0.0
2018-Jul-17 17:30N 34°14' W 119°16'0 0.0
2018-Jul-17 17:00N 34°14' W 119°16'0 0.0
2018-Jul-17 16:31N 34°14' W 119°16'0 0.0
2018-Jul-17 16:00N 34°14' W 119°16'0 0.0
2018-Jul-17 15:28N 34°14' W 119°16'0 0.5
2018-Jul-17 14:59N 34°15' W 119°16'0 0.0
2018-Jul-17 14:29N 34°15' W 119°16'0 0.0
2018-Jul-17 14:01N 34°15' W 119°16'0 0.0
2018-Jul-17 13:27N 34°15' W 119°16'0 0.0
2018-Jul-17 13:00N 34°15' W 119°16'0 0.0
2018-Jul-17 12:30N 34°15' W 119°16'0 0.0
2018-Jul-17 12:00N 34°15' W 119°16'0 0.0
2018-Jul-17 11:30N 34°15' W 119°16'0 0.0
2018-Jul-17 10:58N 34°15' W 119°16'0 0.0
2018-Jul-17 10:30N 34°15' W 119°16'0 0.0
2018-Jul-17 10:00N 34°15' W 119°16'0 0.0
2018-Jul-17 09:31N 34°15' W 119°16'0 0.0
2018-Jul-17 09:00N 34°15' W 119°16'0 0.0
2018-Jul-17 08:30N 34°15' W 119°16'0 0.0
2018-Jul-17 08:00N 34°15' W 119°16'0 0.0
2018-Jul-17 07:29N 34°15' W 119°16'0 0.0
2018-Jul-17 07:01N 34°15' W 119°16'0 0.0
2018-Jul-17 06:30N 34°15' W 119°16'0 0.0
2018-Jul-17 06:00N 34°15' W 119°16'0 0.0
2018-Jul-17 05:31N 34°15' W 119°16'0 0.0
2018-Jul-17 05:00N 34°15' W 119°16'0 0.0
2018-Jul-17 04:30N 34°15' W 119°16'0 0.0
2018-Jul-17 03:57N 34°15' W 119°16'0 0.0
2018-Jul-17 03:27N 34°15' W 119°16'0 0.0
2018-Jul-17 02:58N 34°15' W 119°16'0 0.0
2018-Jul-17 02:31N 34°15' W 119°16'0 0.0
2018-Jul-17 02:00N 34°15' W 119°16'0 0.0
2018-Jul-17 01:30N 34°15' W 119°16'4 7.8
2018-Jul-17 01:00N 34°12' W 119°20'1020.0
2018-Jul-17 00:30N 34°06' W 119°29'5 4.7
2018-Jul-16 23:30N 34°03' W 119°33'0 0.0
2018-Jul-16 23:00N 34°03' W 119°33'0 0.0
2018-Jul-16 22:30N 34°03' W 119°33'0 0.0
2018-Jul-16 22:00N 34°03' W 119°33'0 0.0
2018-Jul-16 21:30N 34°03' W 119°33'0 0.0
2018-Jul-16 21:01N 34°03' W 119°33'0 0.0
2018-Jul-16 20:31N 34°03' W 119°33'0 0.1
2018-Jul-16 20:00N 34°03' W 119°33'0 0.1
2018-Jul-16 19:30N 34°03' W 119°33'0 0.1
2018-Jul-16 19:00N 34°03' W 119°33'0 0.1
2018-Jul-16 18:30N 34°03' W 119°33'510.0
2018-Jul-16 18:00N 34°06' W 119°29'1019.2
2018-Jul-16 17:30N 34°12' W 119°20'4 7.5
2018-Jul-16 16:58N 34°15' W 119°16'0 0.0
2018-Jul-16 16:30N 34°15' W 119°16'0 0.0
2018-Jul-16 16:00N 34°15' W 119°16'0 0.0
2018-Jul-16 15:30N 34°15' W 119°16'0 0.0
2018-Jul-16 14:57N 34°15' W 119°16'0 0.0
2018-Jul-16 14:30N 34°15' W 119°16'0 0.0
2018-Jul-16 14:00N 34°15' W 119°16'0 0.0
2018-Jul-16 13:29N 34°15' W 119°16'0 0.0
2018-Jul-16 13:00N 34°15' W 119°16'0 0.0
2018-Jul-16 12:30N 34°15' W 119°16'0 0.0
2018-Jul-16 12:00N 34°15' W 119°16'0 0.0
2018-Jul-16 11:30N 34°15' W 119°16'0 0.0
2018-Jul-16 11:00N 34°15' W 119°16'0 0.0
2018-Jul-16 10:30N 34°15' W 119°16'0 0.0
2018-Jul-16 10:01N 34°15' W 119°16'0 0.0
2018-Jul-16 09:30N 34°15' W 119°16'0 0.0
2018-Jul-16 08:59N 34°15' W 119°16'0 0.0
2018-Jul-16 08:28N 34°15' W 119°16'0 0.0
2018-Jul-16 08:00N 34°15' W 119°16'0 0.0
2018-Jul-16 07:29N 34°15' W 119°16'0 0.0
2018-Jul-16 06:59N 34°15' W 119°16'0 0.0
2018-Jul-16 06:30N 34°15' W 119°16'0 0.0
2018-Jul-16 06:00N 34°15' W 119°16'0 0.0
2018-Jul-16 05:30N 34°15' W 119°16'0 0.0
2018-Jul-16 05:00N 34°15' W 119°16'0 0.0
2018-Jul-16 04:30N 34°15' W 119°16'0 0.0
2018-Jul-16 04:00N 34°15' W 119°16'0 0.0
2018-Jul-16 03:30N 34°15' W 119°16'0 0.0
2018-Jul-16 03:00N 34°15' W 119°16'0 0.0
2018-Jul-16 02:30N 34°15' W 119°16'2 4.3
2018-Jul-16 02:00N 34°13' W 119°17'919.0
2018-Jul-16 01:30N 34°03' W 119°15'1019.7
2018-Jul-16 01:00N 33°54' W 119°13'917.2
2018-Jul-16 00:30N 33°46' W 119°10'1017.9
2018-Jul-15 23:58N 33°36' W 119°06'918.3
2018-Jul-15 23:30N 33°28' W 119°03'5 9.4
2018-Jul-15 22:58N 33°25' W 119°08'1315.6
2018-Jul-15 22:10N 33°16' W 119°18'2 7.5
2018-Jul-15 21:57N 33°16' W 119°20'816.0
2018-Jul-15 21:27N 33°21' W 119°28'714.1
2018-Jul-15 20:56N 33°26' W 119°33'7 9.3
2018-Jul-15 20:12N 33°32' W 119°38'2 8.3
2018-Jul-15 20:00N 33°34' W 119°38'3 6.0
2018-Jul-15 19:30N 33°37' W 119°40'4 7.2
2018-Jul-15 19:00N 33°40' W 119°42'3 5.2
2018-Jul-15 18:30N 33°42' W 119°43'4 7.3
2018-Jul-15 17:57N 33°46' W 119°44'612.9
2018-Jul-15 17:29N 33°52' W 119°42'510.7
2018-Jul-15 17:00N 33°54' W 119°36'712.5
2018-Jul-15 16:27N 33°55' W 119°28'714.4
2018-Jul-15 16:00N 34°00' W 119°23'2 3.1
2018-Jul-15 15:30N 34°01' W 119°21'4 6.6
2018-Jul-15 14:58N 34°05' W 119°21'714.0
2018-Jul-15 14:30N 34°11' W 119°19'5 9.1
2018-Jul-15 14:01N 34°15' W 119°16'0 0.0
2018-Jul-15 13:30N 34°15' W 119°16'0 0.0
2018-Jul-15 12:58N 34°15' W 119°16'0 0.0
2018-Jul-15 12:29N 34°15' W 119°16'0 0.0
2018-Jul-15 11:56N 34°15' W 119°16'0 0.0
2018-Jul-15 11:30N 34°15' W 119°16'0 0.0
2018-Jul-15 11:00N 34°15' W 119°16'0 0.0
2018-Jul-15 10:30N 34°15' W 119°16'0 0.0
2018-Jul-15 09:58N 34°15' W 119°16'0 0.0
2018-Jul-15 09:30N 34°15' W 119°16'0 0.0
2018-Jul-15 09:00N 34°15' W 119°16'0 0.0
2018-Jul-15 08:30N 34°15' W 119°16'0 0.0
2018-Jul-15 07:59N 34°15' W 119°16'0 0.0
2018-Jul-15 07:31N 34°15' W 119°16'0 0.0
2018-Jul-15 07:00N 34°15' W 119°16'0 0.0
2018-Jul-15 06:30N 34°15' W 119°16'0 0.0
2018-Jul-15 06:01N 34°15' W 119°16'0 0.0
2018-Jul-15 05:30N 34°15' W 119°16'0 0.0
2018-Jul-15 05:00N 34°15' W 119°16'0 0.0
2018-Jul-15 04:29N 34°15' W 119°16'0 0.0
2018-Jul-15 04:00N 34°15' W 119°16'0 0.0
2018-Jul-15 03:28N 34°15' W 119°16'0 0.0
2018-Jul-15 03:00N 34°15' W 119°16'0 0.0
2018-Jul-15 02:29N 34°15' W 119°16'0 0.0
2018-Jul-15 02:01N 34°15' W 119°16'0 0.0
2018-Jul-15 01:30N 34°15' W 119°16'0 0.4
2018-Jul-15 01:00N 34°14' W 119°16'1 1.0
2018-Jul-15 00:30N 34°15' W 119°16'1018.0
2018-Jul-14 23:56N 34°08' W 119°26'818.7
2018-Jul-14 23:29N 34°03' W 119°33'0 0.1
2018-Jul-14 23:00N 34°03' W 119°33'0 0.0
2018-Jul-14 22:29N 34°03' W 119°33'0 0.1
2018-Jul-14 22:00N 34°03' W 119°33'1 1.0
2018-Jul-14 21:30N 34°03' W 119°33'0 0.3
2018-Jul-14 21:00N 34°03' W 119°33'0 0.0
2018-Jul-14 20:29N 34°03' W 119°33'0 0.0
2018-Jul-14 20:00N 34°03' W 119°33'0 0.0
2018-Jul-14 19:30N 34°03' W 119°33'0 0.0
2018-Jul-14 19:00N 34°03' W 119°33'0 0.0
2018-Jul-14 18:30N 34°03' W 119°33'0 0.0
2018-Jul-14 18:00N 34°03' W 119°33'1 1.4
2018-Jul-14 17:30N 34°03' W 119°33'4 8.9
2018-Jul-14 17:00N 34°06' W 119°29'1019.3
2018-Jul-14 16:29N 34°12' W 119°20'4 8.6
2018-Jul-14 15:59N 34°15' W 119°16'0 0.0
2018-Jul-14 15:30N 34°15' W 119°16'0 0.0
2018-Jul-14 15:00N 34°15' W 119°16'0 0.0
2018-Jul-14 14:30N 34°15' W 119°16'0 0.0
2018-Jul-14 13:29N 34°15' W 119°16'0 0.0
2018-Jul-14 13:00N 34°15' W 119°16'0 0.0
2018-Jul-14 12:30N 34°15' W 119°16'0 0.0
2018-Jul-14 12:00N 34°15' W 119°16'0 0.0
2018-Jul-14 11:30N 34°15' W 119°16'0 0.0
2018-Jul-14 11:00N 34°15' W 119°16'0 0.0
2018-Jul-14 10:30N 34°15' W 119°16'0 0.0
2018-Jul-14 10:00N 34°15' W 119°16'0 0.0
2018-Jul-14 09:29N 34°15' W 119°16'0 0.0
2018-Jul-14 09:00N 34°15' W 119°16'0 0.0
2018-Jul-14 08:30N 34°15' W 119°16'0 0.0
2018-Jul-14 08:00N 34°15' W 119°16'0 0.0
2018-Jul-14 07:30N 34°15' W 119°16'0 0.0
2018-Jul-14 07:00N 34°15' W 119°16'0 0.0
2018-Jul-14 06:30N 34°15' W 119°16'0 0.0
2018-Jul-14 06:00N 34°15' W 119°16'0 0.0
2018-Jul-14 05:29N 34°15' W 119°16'0 0.0
2018-Jul-14 05:00N 34°15' W 119°16'0 0.0
2018-Jul-14 04:30N 34°15' W 119°16'0 0.0
2018-Jul-14 04:00N 34°15' W 119°16'0 0.0
2018-Jul-14 03:30N 34°15' W 119°16'0 0.0
2018-Jul-14 03:00N 34°15' W 119°16'0 0.0
2018-Jul-14 02:30N 34°15' W 119°16'0 0.0
2018-Jul-14 02:00N 34°15' W 119°16'0 0.0
2018-Jul-14 01:30N 34°15' W 119°16'0 0.0
2018-Jul-14 01:00N 34°15' W 119°16'2 3.7
2018-Jul-14 00:30N 34°14' W 119°18'918.5
2018-Jul-14 00:00N 34°08' W 119°26'715.0
2018-Jul-13 23:30N 34°03' W 119°33'0 0.0
2018-Jul-13 23:00N 34°03' W 119°33'0 0.4
2018-Jul-13 22:30N 34°03' W 119°33'11 0.5
2018-Jul-13 00:00N 34°11' W 119°23'713.8
2018-Jul-12 23:30N 34°07' W 119°31'4 8.6
2018-Jul-12 23:00N 34°04' W 119°34'2 3.3
2018-Jul-12 22:30N 34°03' W 119°33'0 0.0
2018-Jul-12 22:00N 34°03' W 119°33'0 0.0
2018-Jul-12 21:30N 34°03' W 119°33'0 0.0
2018-Jul-12 21:00N 34°03' W 119°33'0 0.0
2018-Jul-12 20:30N 34°03' W 119°33'0 0.0
2018-Jul-12 20:00N 34°03' W 119°33'0 0.0
2018-Jul-12 19:29N 34°03' W 119°33'0 0.0
2018-Jul-12 19:00N 34°03' W 119°33'0 0.0
2018-Jul-12 18:24N 34°03' W 119°33'0 0.1
2018-Jul-12 17:59N 34°03' W 119°33'713.6
2018-Jul-12 17:30N 34°08' W 119°28'918.2
2018-Jul-12 17:00N 34°13' W 119°19'3 5.9
2018-Jul-12 16:30N 34°15' W 119°16'0 0.0
2018-Jul-12 16:00N 34°15' W 119°16'0 0.0
2018-Jul-12 15:30N 34°15' W 119°16'0 0.0
2018-Jul-12 15:00N 34°15' W 119°16'0 0.0
2018-Jul-12 14:30N 34°15' W 119°16'0 0.0
2018-Jul-12 13:56N 34°15' W 119°16'0 0.0
2018-Jul-12 13:30N 34°15' W 119°16'0 0.0
2018-Jul-12 13:00N 34°15' W 119°16'0 0.0
2018-Jul-12 12:26N 34°15' W 119°16'0 0.0
2018-Jul-12 12:00N 34°15' W 119°16'0 0.0
2018-Jul-12 11:29N 34°15' W 119°16'0 0.0
2018-Jul-12 11:00N 34°15' W 119°16'0 0.0
2018-Jul-12 10:30N 34°15' W 119°16'0 0.0
2018-Jul-12 10:00N 34°15' W 119°16'0 0.0
2018-Jul-12 09:30N 34°15' W 119°16'0 0.0
2018-Jul-12 09:00N 34°15' W 119°16'0 0.0
2018-Jul-12 08:30N 34°15' W 119°16'0 0.0
2018-Jul-12 08:00N 34°15' W 119°16'0 0.0
2018-Jul-12 07:30N 34°15' W 119°16'0 0.0
2018-Jul-12 07:00N 34°15' W 119°16'0 0.0
2018-Jul-12 06:30N 34°15' W 119°16'0 0.0
2018-Jul-12 05:59N 34°15' W 119°16'0 0.0
2018-Jul-12 05:30N 34°15' W 119°16'0 0.0
2018-Jul-12 05:00N 34°15' W 119°16'0 0.0
2018-Jul-12 04:30N 34°15' W 119°16'0 0.0
2018-Jul-12 04:00N 34°15' W 119°16'0 0.0
2018-Jul-12 03:30N 34°15' W 119°16'0 0.0
2018-Jul-12 02:59N 34°15' W 119°16'0 0.0
2018-Jul-12 02:30N 34°15' W 119°16'0 0.0
2018-Jul-12 02:00N 34°15' W 119°16'0 0.0
2018-Jul-12 01:30N 34°15' W 119°16'0 0.0
2018-Jul-12 00:58N 34°15' W 119°16'0 0.0
2018-Jul-12 00:30N 34°15' W 119°16'0 0.6
2018-Jul-12 00:00N 34°15' W 119°16'1019.8
2018-Jul-11 23:31N 34°09' W 119°26'612.9
2018-Jul-11 23:00N 34°05' W 119°32'3 5.3
2018-Jul-11 22:30N 34°03' W 119°33'0 0.1
2018-Jul-11 22:00N 34°03' W 119°33'1 1.1
2018-Jul-11 21:30N 34°03' W 119°33'0 0.1
2018-Jul-11 21:00N 34°03' W 119°33'0 0.1
2018-Jul-11 20:30N 34°03' W 119°33'0 0.1
2018-Jul-11 20:00N 34°03' W 119°33'0 0.0
2018-Jul-11 19:30N 34°03' W 119°33'0 0.0
2018-Jul-11 19:00N 34°03' W 119°33'1 1.1
2018-Jul-11 18:30N 34°03' W 119°33'0 0.0
2018-Jul-11 18:00N 34°03' W 119°33'0 0.6
2018-Jul-11 17:30N 34°03' W 119°33'714.0
2018-Jul-11 17:00N 34°08' W 119°27'918.0
2018-Jul-11 16:30N 34°14' W 119°18'2 4.8
2018-Jul-11 16:01N 34°15' W 119°16'0 0.0
2018-Jul-11 15:31N 34°15' W 119°16'0 0.0
2018-Jul-11 15:00N 34°15' W 119°16'0 0.0
2018-Jul-11 14:31N 34°15' W 119°16'0 0.0
2018-Jul-11 14:00N 34°15' W 119°16'0 0.0
2018-Jul-11 13:30N 34°15' W 119°16'0 0.0
2018-Jul-11 13:00N 34°15' W 119°16'0 0.0
2018-Jul-11 12:28N 34°15' W 119°16'0 0.0
2018-Jul-11 12:00N 34°15' W 119°16'0 0.0
2018-Jul-11 11:30N 34°15' W 119°16'0 0.0
2018-Jul-11 11:00N 34°15' W 119°16'0 0.0
2018-Jul-11 10:29N 34°15' W 119°16'0 0.0
2018-Jul-11 10:01N 34°15' W 119°16'0 0.0
2018-Jul-11 09:28N 34°15' W 119°16'0 0.0
2018-Jul-11 09:00N 34°15' W 119°16'0 0.0
2018-Jul-11 08:29N 34°15' W 119°16'0 0.0
2018-Jul-11 08:00N 34°15' W 119°16'0 0.0
2018-Jul-11 07:31N 34°15' W 119°16'0 0.0
2018-Jul-11 07:00N 34°15' W 119°16'0 0.0
2018-Jul-11 06:30N 34°15' W 119°16'0 0.0
2018-Jul-11 06:01N 34°15' W 119°16'0 0.0
2018-Jul-11 05:30N 34°15' W 119°16'0 0.0
2018-Jul-11 05:00N 34°15' W 119°16'0 0.0
2018-Jul-11 04:31N 34°15' W 119°16'0 0.0
2018-Jul-11 04:00N 34°15' W 119°16'0 0.0
2018-Jul-11 03:31N 34°15' W 119°16'0 0.0
2018-Jul-11 02:57N 34°15' W 119°16'0 0.0
2018-Jul-11 02:29N 34°15' W 119°16'0 0.0
2018-Jul-11 02:01N 34°15' W 119°16'0 0.0
2018-Jul-11 01:31N 34°15' W 119°16'0 0.0
2018-Jul-11 01:01N 34°15' W 119°16'0 0.0
2018-Jul-11 00:31N 34°15' W 119°16'713.2
2018-Jul-11 00:00N 34°09' W 119°20'815.8
2018-Jul-10 23:30N 34°01' W 119°21'816.5
2018-Jul-10 23:00N 34°05' W 119°30'2 4.2
2018-Jul-10 22:30N 34°06' W 119°32'611.0
2018-Jul-10 21:59N 34°10' W 119°27'511.3
2018-Jul-10 21:30N 34°12' W 119°21'5 9.9
2018-Jul-10 21:00N 34°15' W 119°16'0 0.2
2018-Jul-10 20:30N 34°15' W 119°16'916.5
2018-Jul-10 19:59N 34°08' W 119°22'712.7
2018-Jul-10 19:27N 34°01' W 119°22'716.1
2018-Jul-10 19:00N 34°03' W 119°30'2 4.5
2018-Jul-10 18:30N 34°06' W 119°30'2 3.4
2018-Jul-10 18:00N 34°07' W 119°30'816.3
2018-Jul-10 17:31N 34°12' W 119°22'611.3
2018-Jul-10 17:00N 34°15' W 119°16'0 0.0
2018-Jul-10 16:30N 34°15' W 119°16'0 0.0
2018-Jul-10 16:00N 34°15' W 119°16'0 0.0
2018-Jul-10 15:28N 34°15' W 119°16'0 0.0
2018-Jul-10 15:00N 34°15' W 119°16'0 0.0
2018-Jul-10 14:31N 34°15' W 119°16'0 0.0
2018-Jul-10 14:00N 34°15' W 119°16'0 0.0
2018-Jul-10 13:31N 34°15' W 119°16'0 0.0
2018-Jul-10 13:00N 34°15' W 119°16'0 0.0
2018-Jul-10 12:30N 34°15' W 119°16'0 0.0
2018-Jul-10 12:00N 34°15' W 119°16'  

Dump ship's entire track history